Time;durP1;ratioP1;P1;durP2;ratioP2;P2;SDS_P1;SDS_P2;PMS_P1;PMS_P2;Temp;Humidity;BMP_temperature;BMP_pressure;BME280_temperature;BME280_humidity;BME280_pressure;Samples;Min_cycle;Max_cycle;Signal;HPM_P1;HPM_P2
2021/12/27 00:05:21;;;;;;;59.47;53.37;;;;;;;9.12;100.00;100073.72;1893730;73;86469;-76
2021/12/27 00:11:05;;;;;;;67.07;53.30;;;;;;;9.17;100.00;100063.14;1912662;74;86208;-73
2021/12/27 00:16:49;;;;;;;67.40;54.90;;;;;;;9.16;100.00;100051.78;1960826;71;40349;-73
2021/12/27 00:22:33;;;;;;;73.63;55.40;;;;;;;9.20;100.00;100038.20;1831787;76;86187;-76
2021/12/27 00:28:18;;;;;;;76.80;55.70;;;;;;;9.15;100.00;100030.77;1873308;75;87235;-73
2021/12/27 00:34:02;;;;;;;66.20;55.77;;;;;;;9.13;100.00;100015.81;1906409;72;85733;-77
2021/12/27 00:39:46;;;;;;;64.07;56.27;;;;;;;9.19;100.00;100019.36;1984665;71;39536;-75
2021/12/27 00:45:31;;;;;;;66.37;56.10;;;;;;;9.26;100.00;100012.05;1889835;74;85386;-75
2021/12/27 00:51:15;;;;;;;63.20;54.90;;;;;;;9.25;100.00;100014.00;1824779;76;86723;-77
2021/12/27 00:56:59;;;;;;;59.77;53.50;;;;;;;9.22;100.00;100011.00;1914064;74;86021;-73
2021/12/27 01:02:45;;;;;;;58.03;51.70;;;;;;;9.24;100.00;99994.33;1810101;78;86573;-73
2021/12/27 01:08:28;;;;;;;57.13;51.20;;;;;;;9.26;100.00;99998.20;1806906;78;84885;-78
2021/12/27 01:14:15;;;;;;;56.93;51.63;;;;;;;9.22;100.00;99993.81;1935942;73;85504;-75
2021/12/27 01:20:00;;;;;;;56.50;51.30;;;;;;;9.31;100.00;99985.66;1945191;73;86459;-72
2021/12/27 01:25:45;;;;;;;54.60;49.10;;;;;;;9.29;100.00;99968.50;1803472;78;86453;-73
2021/12/27 01:31:28;;;;;;;56.40;51.03;;;;;;;9.06;100.00;99950.82;1810680;78;85739;-71
2021/12/27 01:37:17;;;;;;;58.10;52.70;;;;;;;8.79;100.00;99957.52;1852396;76;86418;-75
2021/12/27 01:43:10;;;;;;;56.37;51.17;;;;;;;8.83;100.00;99959.97;1908956;72;85515;-73
2021/12/27 01:48:57;;;;;;;56.03;50.83;;;;;;;8.69;100.00;99952.92;1979199;71;39696;-74
2021/12/27 01:54:44;;;;;;;53.60;48.70;;;;;;;8.76;100.00;99947.05;1808870;78;85503;-75
2021/12/27 02:00:29;;;;;;;55.00;50.10;;;;;;;8.82;100.00;99932.00;1809560;78;86400;-75
2021/12/27 02:06:15;;;;;;;55.07;50.03;;;;;;;8.83;100.00;99923.97;1911856;72;85581;-72
2021/12/27 02:12:04;;;;;;;55.73;50.87;;;;;;;8.70;100.00;99914.44;1913784;72;85456;-76
2021/12/27 02:17:48;;;;;;;55.37;50.73;;;;;;;8.75;100.00;99913.00;1975083;71;41911;-75
2021/12/27 02:23:34;;;;;;;54.30;49.57;;;;;;;8.80;100.00;99909.34;1831585;75;86130;-75
2021/12/27 02:29:18;;;;;;;56.13;50.97;;;;;;;8.83;100.00;99896.28;1872467;75;86183;-74
2021/12/27 02:35:02;;;;;;;56.03;50.90;;;;;;;8.89;100.00;99884.03;1933759;71;86464;-73
2021/12/27 02:40:47;;;;;;;57.63;52.13;;;;;;;8.92;100.00;99880.66;1985551;71;39513;-75
2021/12/27 02:46:32;;;;;;;57.77;52.53;;;;;;;8.88;100.00;99879.60;1909811;73;85635;-75
2021/12/27 02:52:17;;;;;;;60.20;53.93;;;;;;;8.68;100.00;99873.20;1892421;75;85316;-74
2021/12/27 03:01:00;;;;;;;61.37;55.70;;;;;;;8.64;100.00;99854.73;1984728;69;39636;-73
2021/12/27 03:03:34;;;;;;;59.20;53.40;;;;;;;8.50;100.00;99874.01;1922583;73;932621;-72
2021/12/27 03:06:07;;;;;;;58.20;52.07;;;;;;;8.32;100.00;99880.30;1936075;73;936693;-72
2021/12/27 03:08:39;;;;;;;58.95;53.05;;;;;;;8.46;100.00;99876.27;1911772;73;936841;-72
2021/12/27 03:11:11;;;;;;;60.20;54.70;;;;;;;8.46;100.00;99874.89;1863718;74;936523;-72
2021/12/27 03:13:46;;;;;;;55.93;50.73;;;;;;;8.44;100.00;99871.58;1855305;74;937335;-73
2021/12/27 03:19:31;;;;;;;71.40;52.47;;;;;;;8.09;100.00;99866.67;1894118;74;86384;-75
2021/12/27 03:25:18;;;;;;;58.87;53.03;;;;;;;8.27;100.00;99878.94;1885743;74;85936;-74
2021/12/27 03:31:02;;;;;;;66.10;53.13;;;;;;;8.28;100.00;99860.40;1904241;72;85986;-74
2021/12/27 03:36:48;;;;;;;57.83;52.27;;;;;;;8.11;100.00;99858.93;1983974;71;39686;-74
2021/12/27 03:42:32;;;;;;;56.17;50.90;;;;;;;8.17;100.00;99850.82;1887845;74;86531;-74
2021/12/27 03:48:17;;;;;;;58.73;52.83;;;;;;;8.51;100.00;99838.30;1872565;75;86507;-74
2021/12/27 03:54:01;;;;;;;58.77;52.73;;;;;;;8.73;100.00;99847.98;1916913;72;86089;-73
2021/12/27 04:00:04;;;;;;;57.07;51.17;;;;;;;8.76;100.00;99835.75;1932266;71;39971;-75
2021/12/27 04:05:36;;;;;;;55.53;49.87;;;;;;;8.88;100.00;99829.20;1969784;69;86236;-73
2021/12/27 04:11:20;;;;;;;53.00;47.47;;;;;;;8.84;100.00;99805.17;1896874;73;86629;-74
2021/12/27 04:17:04;;;;;;;54.87;49.03;;;;;;;8.93;100.00;99806.98;1910881;72;86700;-73
2021/12/27 04:22:51;;;;;;;53.40;48.10;;;;;;;9.05;100.00;99814.83;1983511;71;49066;-75
2021/12/27 04:28:39;;;;;;;54.47;48.97;;;;;;;9.07;100.00;99810.62;1840758;75;86215;-73
2021/12/27 04:34:23;;;;;;;55.60;49.93;;;;;;;9.08;100.00;99803.96;1870808;74;85180;-76
2021/12/27 04:40:15;;;;;;;54.00;48.60;;;;;;;9.03;100.00;99799.05;1919975;72;86438;-74
2021/12/27 04:46:00;;;;;;;53.03;47.87;;;;;;;8.98;100.00;99788.08;1910134;74;86373;-75
2021/12/27 04:51:44;;;;;;;53.13;48.13;;;;;;;9.06;100.00;99775.75;1803419;78;86614;-75
2021/12/27 04:57:29;;;;;;;57.03;48.90;;;;;;;9.14;100.00;99761.22;1802174;78;86437;-75
2021/12/27 05:03:13;;;;;;;59.33;47.30;;;;;;;9.05;100.00;99742.81;1826036;78;86232;-74
2021/12/27 05:08:57;;;;;;;54.37;48.67;;;;;;;9.12;100.00;99737.70;1980448;71;39541;-74
2021/12/27 05:14:44;;;;;;;52.50;46.83;;;;;;;9.13;100.00;99704.16;1828336;76;85894;-74
2021/12/27 05:20:28;;;;;;;51.00;45.80;;;;;;;9.05;100.00;99706.80;1807772;78;85567;-73
2021/12/27 05:26:12;;;;;;;52.80;47.30;;;;;;;8.88;100.00;99712.08;1907752;72;86512;-81
2021/12/27 05:32:01;;;;;;;51.27;46.17;;;;;;;8.72;100.00;99699.05;1926478;71;39678;-76
2021/12/27 05:37:42;;;;;;;51.53;46.40;;;;;;;8.77;100.00;99688.45;1816891;77;86087;-72
2021/12/27 05:43:29;;;;;;;50.77;45.97;;;;;;;8.77;100.00;99678.18;1807462;78;86314;-73
2021/12/27 05:49:14;;;;;;;54.20;49.10;;;;;;;8.83;100.00;99669.23;1906046;72;86794;-72
2021/12/27 05:54:58;;;;;;;52.50;47.23;;;;;;;8.90;100.00;99660.79;1977255;71;46840;-75
2021/12/27 06:00:43;;;;;;;52.23;47.20;;;;;;;8.92;100.00;99649.42;1835217;76;86359;-73
2021/12/27 06:06:27;;;;;;;50.80;46.47;;;;;;;8.93;100.00;99634.46;1809118;78;86239;-76
2021/12/27 06:12:14;;;;;;;47.97;43.67;;;;;;;8.97;100.00;99621.64;1938178;72;86383;-71
2021/12/27 06:17:58;;;;;;;48.97;44.70;;;;;;;9.05;100.00;99613.45;1814080;78;86355;-75
2021/12/27 06:23:42;;;;;;;50.83;46.13;;;;;;;9.05;100.00;99605.15;1863069;76;86535;-74
2021/12/27 06:29:26;;;;;;;49.50;44.57;;;;;;;9.04;100.00;99592.98;1869808;75;86490;-76
2021/12/27 06:35:15;;;;;;;48.10;43.70;;;;;;;8.90;100.00;99581.87;1903563;72;86252;-77
2021/12/27 06:41:02;;;;;;;49.40;45.13;;;;;;;8.81;100.00;99580.97;1914510;72;86625;-72
2021/12/27 06:46:47;;;;;;;55.67;51.07;;;;;;;8.82;100.00;99567.91;1976878;71;39456;-75
2021/12/27 06:52:31;;;;;;;51.30;47.37;;;;;;;8.87;100.00;99555.36;1884081;75;86740;-77
2021/12/27 06:58:16;;;;;;;52.20;47.97;;;;;;;8.95;100.00;99556.86;1860208;76;86422;-72
2021/12/27 07:04:03;;;;;;;51.63;47.30;;;;;;;8.87;100.00;99548.44;1912169;72;86337;-73
2021/12/27 07:09:49;;;;;;;51.10;46.90;;;;;;;8.90;100.00;99543.11;1982929;71;39594;-73
2021/12/27 07:15:41;;;;;;;51.63;47.33;;;;;;;8.92;100.00;99549.73;1825546;75;86497;-77
2021/12/27 07:21:24;;;;;;;49.60;45.30;;;;;;;8.97;100.00;99534.41;1872850;74;86645;-72
2021/12/27 07:27:14;;;;;;;50.77;46.27;;;;;;;8.94;100.00;99525.34;1915951;72;86766;-76
2021/12/27 07:32:57;;;;;;;51.53;46.90;;;;;;;8.94;100.00;99519.80;1979960;71;39615;-71
2021/12/27 07:38:45;;;;;;;51.67;46.70;;;;;;;9.01;100.00;99514.67;1875469;74;86445;-72
2021/12/27 07:44:29;;;;;;;50.93;46.30;;;;;;;8.98;100.00;99516.67;1809780;78;86689;-74
2021/12/27 07:50:15;;;;;;;49.60;45.00;;;;;;;9.11;100.00;99520.02;1908265;73;86348;-75
2021/12/27 07:56:00;;;;;;;51.30;46.70;;;;;;;9.17;100.00;99514.61;1917647;74;86435;-74
2021/12/27 08:01:44;;;;;;;52.17;47.27;;;;;;;9.12;100.00;99511.38;1811892;78;86467;-73
2021/12/27 08:07:28;;;;;;;53.77;48.97;;;;;;;9.11;100.00;99514.48;1810866;78;86825;-78
2021/12/27 08:13:18;;;;;;;53.00;48.27;;;;;;;9.11;100.00;99510.32;1945816;72;86410;-80
2021/12/27 08:19:05;;;;;;;53.30;48.30;;;;;;;9.18;100.00;99514.88;1902645;73;86614;-76
2021/12/27 08:24:53;;;;;;;53.00;48.30;;;;;;;9.17;100.00;99520.15;1926687;71;39716;-72
2021/12/27 08:30:36;;;;;;;52.60;47.70;;;;;;;9.22;100.00;99510.92;1821004;76;86598;-74
2021/12/27 08:36:20;;;;;;;58.23;52.93;;;;;;;9.22;100.00;99505.37;1873209;75;86521;-75
2021/12/27 08:42:07;;;;;;;55.67;50.80;;;;;;;9.32;100.00;99509.33;1907525;73;86944;-74
2021/12/27 08:47:51;;;;;;;56.33;51.37;;;;;;;9.31;100.00;99510.45;1986656;71;39561;-72
2021/12/27 08:53:35;;;;;;;57.70;52.53;;;;;;;9.34;100.00;99507.05;1840114;76;86896;-72
2021/12/27 08:59:23;;;;;;;55.83;50.63;;;;;;;9.37;100.00;99505.06;1872515;75;86828;-75
2021/12/27 09:05:10;;;;;;;57.80;52.37;;;;;;;9.37;100.00;99493.98;1928346;73;86499;-75
2021/12/27 09:10:57;;;;;;;57.87;52.00;;;;;;;9.41;100.00;99490.25;1982804;71;39496;-75
2021/12/27 09:16:43;;;;;;;58.13;52.83;;;;;;;9.50;100.00;99476.48;1847750;75;86386;-78
2021/12/27 09:22:30;;;;;;;59.10;53.53;;;;;;;9.57;100.00;99468.58;1802996;78;86548;-74
2021/12/27 09:28:13;;;;;;;58.27;52.83;;;;;;;9.68;100.00;99460.83;1914050;74;86677;-74
2021/12/27 09:33:58;;;;;;;60.33;54.93;;;;;;;9.76;100.00;99449.81;1952974;71;39659;-81
2021/12/27 09:39:43;;;;;;;59.97;54.67;;;;;;;9.78;100.00;99446.73;1853646;76;86213;-75
2021/12/27 09:45:28;;;;;;;61.00;56.00;;;;;;;9.86;100.00;99433.50;1916035;74;86808;-75
2021/12/27 09:51:14;;;;;;;57.47;52.40;;;;;;;9.88;100.00;99427.88;1933487;73;86623;-77
2021/12/27 09:57:01;;;;;;;56.13;51.40;;;;;;;9.95;100.00;99428.28;1982361;71;40290;-75
2021/12/27 10:02:45;;;;;;;58.33;53.13;;;;;;;9.92;100.00;99426.14;1796271;78;85701;-76
2021/12/27 10:08:32;;;;;;;57.07;52.47;;;;;;;9.97;100.00;99411.30;1795714;78;86356;-74
2021/12/27 10:14:18;;;;;;;57.30;52.33;;;;;;;10.02;100.00;99413.95;1872720;75;86637;-76
2021/12/27 10:20:15;;;;;;;58.43;53.77;;;;;;;10.12;100.00;99408.14;1916352;72;86144;-74
2021/12/27 10:26:01;;;;;;;57.23;52.53;;;;;;;10.13;100.00;99402.86;1928390;72;86364;-78
2021/12/27 10:35:21;;;;;;;53.03;48.70;;;;;;;10.34;100.00;99397.05;1889432;75;86648;-74
2021/12/27 10:37:52;;;;;;;54.63;50.08;;;;;;;10.35;100.00;99402.85;1815979;77;936847;-76
2021/12/27 10:40:23;;;;;;;55.03;50.93;;;;;;;10.36;100.00;99402.26;1803871;78;936799;-77
2021/12/27 10:42:54;;;;;;;52.87;48.87;;;;;;;10.34;100.00;99393.45;1795748;76;938979;-76
2021/12/27 10:48:44;;;;;;;56.13;52.37;;;;;;;10.44;100.00;99382.86;1822335;76;86438;-73
2021/12/27 10:54:35;;;;;;;58.80;55.00;;;;;;;10.55;100.00;99370.92;1885032;74;86350;-76
2021/12/27 11:00:22;;;;;;;57.10;53.60;;;;;;;10.57;100.00;99364.46;1897496;75;86648;-80
2021/12/27 11:06:09;;;;;;;57.00;53.60;;;;;;;10.67;100.00;99362.80;1912988;74;86158;-72
2021/12/27 11:11:57;;;;;;;53.10;49.87;;;;;;;10.71;100.00;99351.86;1978810;71;40255;-76
2021/12/27 11:17:42;;;;;;;51.23;48.07;;;;;;;10.74;100.00;99347.06;1839680;76;86411;-76
2021/12/27 11:23:31;;;;;;;53.80;50.60;;;;;;;10.79;100.00;99326.88;1800865;78;86148;-77
2021/12/27 11:29:17;;;;;;;55.43;52.23;;;;;;;10.78;100.00;99325.23;1924025;73;86350;-73
2021/12/27 11:35:10;;;;;;;54.03;50.83;;;;;;;10.77;100.00;99318.64;1924450;73;86387;-74
2021/12/27 11:40:55;;;;;;;55.20;52.07;;;;;;;10.81;100.00;99310.73;1984597;71;39642;-73
2021/12/27 11:46:58;;;;;;;52.97;49.87;;;;;;;10.86;100.00;99297.26;1834507;76;86258;-74
2021/12/27 11:52:55;;;;;;;52.60;49.47;;;;;;;10.87;100.00;99288.58;1987102;71;39607;-74
2021/12/27 11:58:44;;;;;;;50.87;47.93;;;;;;;10.85;100.00;99285.89;1891001;74;86579;-74
2021/12/27 12:04:54;;;;;;;53.27;50.07;;;;;;;10.88;100.00;99274.94;1976766;71;39594;-78
2021/12/27 12:11:08;;;;;;;48.77;45.57;;;;;;;10.87;100.00;99276.65;1871070;73;86581;-75
2021/12/27 12:16:58;;;;;;;47.23;44.23;;;;;;;10.90;100.00;99261.56;1984820;71;40134;-72
2021/12/27 12:23:05;;;;;;;53.23;50.10;;;;;;;10.88;100.00;99245.78;1881978;73;86289;-76
2021/12/27 12:28:48;;;;;;;49.97;46.97;;;;;;;10.86;100.00;99248.08;1983001;71;39766;-74
2021/12/27 12:34:37;;;;;;;51.77;48.67;;;;;;;10.89;100.00;99236.31;1836310;76;86441;-74
2021/12/27 12:40:27;;;;;;;45.60;42.57;;;;;;;10.90;100.00;99216.30;1880464;74;86298;-74
2021/12/27 12:46:19;;;;;;;45.53;42.53;;;;;;;10.96;100.00;99219.95;1918385;74;86169;-74
2021/12/27 12:52:15;;;;;;;45.77;42.77;;;;;;;11.09;100.00;99211.77;1918724;72;86662;-74
2021/12/27 12:58:00;;;;;;;46.20;42.90;;;;;;;11.20;100.00;99212.52;1870337;75;86368;-75
2021/12/27 13:03:47;;;;;;;45.90;42.90;;;;;;;11.27;100.00;99199.49;1892319;74;86166;-73
2021/12/27 13:09:46;;;;;;;48.23;45.33;;;;;;;11.25;100.00;99188.70;1830949;76;86328;-74
2021/12/27 13:15:41;;;;;;;48.10;45.20;;;;;;;11.31;100.00;99181.01;1848406;76;86690;-75
2021/12/27 13:21:26;;;;;;;49.30;46.23;;;;;;;11.35;100.00;99180.59;1869644;75;86283;-75
2021/12/27 13:27:11;;;;;;;50.50;47.50;;;;;;;11.41;100.00;99159.82;1880760;75;86205;-73
2021/12/27 13:32:55;;;;;;;52.53;49.43;;;;;;;11.38;100.00;99161.88;1986310;71;39674;-75
2021/12/27 13:38:43;;;;;;;51.13;47.97;;;;;;;11.41;100.00;99174.54;1880585;74;85208;-73
2021/12/27 13:44:31;;;;;;;48.53;45.47;;;;;;;11.40;100.00;99168.73;1795571;78;86930;-75
2021/12/27 13:50:13;;;;;;;50.10;46.90;;;;;;;11.42;100.00;99162.25;1932105;72;85537;-75
2021/12/27 13:56:12;;;;;;;47.47;44.17;;;;;;;11.48;100.00;99161.50;1912843;74;86097;-76
2021/12/27 14:02:03;;;;;;;48.43;45.23;;;;;;;11.48;100.00;99157.90;1975966;71;39594;-81
2021/12/27 14:07:50;;;;;;;46.07;42.87;;;;;;;11.47;100.00;99150.73;1932059;71;39736;-73
2021/12/27 14:14:00;;;;;;;45.77;42.37;;;;;;;11.42;100.00;99151.73;1926693;72;86368;-73
2021/12/27 14:20:04;;;;;;;47.40;43.90;;;;;;;11.51;100.00;99150.31;1983248;71;39739;-74
2021/12/27 14:29:18;;;;;;;47.97;43.77;;;;;;;11.68;100.00;99148.84;1902034;75;85765;-75
2021/12/27 14:31:50;;;;;;;49.27;44.87;;;;;;;11.57;100.00;99158.12;1810219;77;936831;-76
2021/12/27 14:34:41;;;;;;;47.53;43.10;;;;;;;11.56;100.00;99157.05;1799951;78;936824;-74
2021/12/27 14:40:28;;;;;;;50.93;46.27;;;;;;;11.61;100.00;99143.79;1888237;74;86137;-72
2021/12/27 14:46:13;;;;;;;54.33;49.37;;;;;;;11.68;100.00;99146.86;1941002;71;86777;-72
2021/12/27 14:51:57;;;;;;;55.13;49.87;;;;;;;11.71;100.00;99130.91;1976056;71;39515;-72
2021/12/27 14:57:42;;;;;;;61.00;51.73;;;;;;;11.66;100.00;99132.48;1819438;76;86128;-75
2021/12/27 15:03:32;;;;;;;54.07;48.23;;;;;;;11.58;100.00;99131.13;1896679;74;86352;-72
2021/12/27 15:09:16;;;;;;;64.73;47.50;;;;;;;11.58;100.00;99140.30;1881469;73;86703;-76
2021/12/27 15:15:02;;;;;;;70.03;50.67;;;;;;;11.67;100.00;99131.91;1945394;73;85864;-75
2021/12/27 15:20:46;;;;;;;80.20;53.30;;;;;;;11.79;100.00;99134.25;1979106;71;39689;-72
2021/12/27 15:29:46;;;;;;;72.87;51.23;;;;;;;11.79;100.00;99134.25;1797701;78;86514;-77
2021/12/27 15:35:30;;;;;;;85.30;50.33;;;;;;;11.69;100.00;99125.42;1802384;78;86564;-73
2021/12/27 15:41:16;;;;;;;79.50;55.17;;;;;;;11.57;100.00;99128.92;1910914;72;86390;-74
2021/12/27 15:47:00;;;;;;;74.53;54.47;;;;;;;11.51;100.00;99130.25;1880385;74;85313;-71
2021/12/27 15:52:45;;;;;;;83.67;55.37;;;;;;;11.59;100.00;99139.16;1808513;78;86356;-75
2021/12/27 15:58:34;;;;;;;94.50;55.60;;;;;;;11.58;100.00;99136.12;1845555;76;86229;-84
2021/12/27 16:04:21;;;;;;;91.43;53.93;;;;;;;11.74;100.00;99139.19;1871269;75;86361;-74
2021/12/27 16:10:07;;;;;;;89.20;56.87;;;;;;;11.70;100.00;99143.75;1915686;74;86389;-72
2021/12/27 16:15:52;;;;;;;80.07;53.87;;;;;;;11.77;100.00;99129.59;1986664;71;39565;-76
2021/12/27 16:21:41;;;;;;;91.50;53.33;;;;;;;11.51;100.00;99135.02;1822872;76;86582;-73
2021/12/27 16:27:26;;;;;;;77.03;53.13;;;;;;;11.61;100.00;99141.58;1841530;75;86916;-72
2021/12/27 16:33:09;;;;;;;77.83;51.73;;;;;;;11.61;100.00;99142.40;1919947;73;86714;-74
2021/12/27 16:38:54;;;;;;;83.73;52.23;;;;;;;11.72;100.00;99145.67;1947440;71;39562;-74
2021/12/27 16:44:39;;;;;;;82.90;50.03;;;;;;;11.71;100.00;99140.64;1839911;76;86453;-74
2021/12/27 16:50:27;;;;;;;80.03;54.50;;;;;;;11.77;100.00;99132.94;1888455;74;86560;-73
2021/12/27 16:56:11;;;;;;;84.53;50.80;;;;;;;11.62;100.00;99112.62;1906580;72;86893;-79
2021/12/27 17:01:57;;;;;;;83.37;57.00;;;;;;;11.54;100.00;99110.70;1984419;70;39799;-76
2021/12/27 17:07:42;;;;;;;67.50;49.83;;;;;;;11.52;100.00;99111.03;1831401;76;86286;-74
2021/12/27 17:13:29;;;;;;;82.33;50.20;;;;;;;11.65;100.00;99107.78;1890338;74;86546;-73
2021/12/27 17:19:17;;;;;;;80.80;49.30;;;;;;;11.68;100.00;99103.75;1910235;73;86276;-74
2021/12/27 17:25:06;;;;;;;79.50;50.50;;;;;;;11.67;100.00;99095.76;1911813;74;86036;-76
2021/12/27 17:30:48;;;;;;;72.80;48.70;;;;;;;11.66;100.00;99096.91;1928821;71;39581;-75
2021/12/27 17:36:34;;;;;;;84.07;51.50;;;;;;;11.66;100.00;99091.34;1889073;74;86286;-79
2021/12/27 17:42:22;;;;;;;70.80;51.93;;;;;;;11.84;100.00;99086.78;1871764;74;85725;-73
2021/12/27 17:48:08;;;;;;;69.27;49.30;;;;;;;11.82;100.00;99071.56;1924756;73;85364;-75
2021/12/27 17:53:52;;;;;;;66.27;52.27;;;;;;;11.76;100.00;99068.18;1978278;71;39487;-75
2021/12/27 17:59:36;;;;;;;63.93;51.47;;;;;;;11.79;100.00;99073.06;1850817;75;86874;-75
2021/12/27 18:05:21;;;;;;;64.13;49.33;;;;;;;11.76;100.00;99057.05;1841723;74;86170;-72
2021/12/27 18:11:06;;;;;;;68.37;47.97;;;;;;;11.77;100.00;99061.44;1908361;72;86743;-74
2021/12/27 18:16:50;;;;;;;76.03;51.13;;;;;;;11.75;100.00;99054.02;1986203;71;39534;-69
2021/12/27 18:22:34;;;;;;;66.40;49.60;;;;;;;11.74;100.00;99051.00;1829912;77;86505;-71
2021/12/27 18:28:18;;;;;;;58.87;48.03;;;;;;;11.71;100.00;99045.27;1880925;73;86383;-73
2021/12/27 18:34:04;;;;;;;63.23;48.07;;;;;;;11.71;100.00;99039.13;1923721;73;86327;-77
2021/12/27 18:39:50;;;;;;;55.80;45.30;;;;;;;11.62;100.00;99023.08;1978277;71;39804;-70
2021/12/27 18:45:34;;;;;;;49.10;43.80;;;;;;;11.61;100.00;99028.96;1814995;76;86466;-74
2021/12/27 18:51:20;;;;;;;48.70;43.93;;;;;;;11.54;100.00;99026.72;1870810;76;86710;-75
2021/12/27 18:57:08;;;;;;;48.27;43.37;;;;;;;11.51;100.00;99012.69;1949026;72;85969;-73
2021/12/27 19:02:51;;;;;;;48.50;43.33;;;;;;;11.65;100.00;99001.53;1983599;71;39756;-70
2021/12/27 19:08:39;;;;;;;48.93;42.80;;;;;;;11.82;100.00;99002.02;1952268;72;86401;-74
2021/12/27 19:14:26;;;;;;;51.00;45.17;;;;;;;11.70;100.00;98994.97;1885586;73;86244;-73
2021/12/27 19:20:12;;;;;;;50.37;45.33;;;;;;;11.67;100.00;98979.78;1908936;73;86666;-72
2021/12/27 19:25:56;;;;;;;49.07;44.07;;;;;;;11.62;100.00;98974.98;1974562;71;39942;-72
2021/12/27 19:31:39;;;;;;;49.20;44.00;;;;;;;11.62;100.00;98977.19;1835816;75;85828;-72
2021/12/27 19:37:23;;;;;;;49.70;44.83;;;;;;;11.61;100.00;98969.18;1875640;73;86320;-71
2021/12/27 19:46:14;;;;;;;47.30;42.80;;;;;;;11.64;100.00;98950.42;1958893;71;86565;-73
2021/12/27 19:48:44;;;;;;;46.28;42.05;;;;;;;11.60;100.00;98964.19;1891120;73;936765;-74
2021/12/27 19:51:17;;;;;;;47.97;43.50;;;;;;;11.61;100.00;98966.40;1898330;74;938744;-74
2021/12/27 19:53:47;;;;;;;49.10;44.47;;;;;;;11.64;100.00;98966.53;1869413;73;938844;-72
2021/12/27 19:56:17;;;;;;;46.47;42.17;;;;;;;11.64;100.00;98960.16;1880607;74;939152;-73
2021/12/27 19:58:47;;;;;;;48.27;43.47;;;;;;;11.61;100.00;98960.84;1856626;74;938688;-74
2021/12/27 20:01:19;;;;;;;47.40;43.23;;;;;;;11.62;100.00;98959.69;1853221;74;938713;-73
2021/12/27 20:03:50;;;;;;;46.55;42.20;;;;;;;11.60;100.00;98953.06;1850849;74;938917;-73
2021/12/27 20:06:20;;;;;;;47.67;43.07;;;;;;;11.62;100.00;98951.34;1847372;75;936792;-74
2021/12/27 20:08:50;;;;;;;47.10;42.80;;;;;;;11.62;100.00;98949.39;1834784;76;939036;-73
2021/12/27 20:11:20;;;;;;;50.67;46.33;;;;;;;11.59;100.00;98951.47;1848146;76;936926;-74
2021/12/27 20:13:51;;;;;;;50.80;46.28;;;;;;;11.59;100.00;98943.12;1854865;74;939049;-74
2021/12/27 20:16:22;;;;;;;51.27;47.07;;;;;;;11.60;100.00;98942.52;1837380;75;936829;-73
2021/12/27 20:18:52;;;;;;;53.13;48.77;;;;;;;11.61;100.00;98936.63;1863812;74;938916;-73
2021/12/27 20:21:23;;;;;;;52.43;48.40;;;;;;;11.63;100.00;98932.13;1831430;76;937728;-74
2021/12/27 20:23:53;;;;;;;53.10;49.00;;;;;;;11.63;100.00;98934.34;1873593;73;938822;-74
2021/12/27 20:29:38;;;;;;;52.37;48.43;;;;;;;11.62;100.00;98923.55;1826831;76;86584;-73
2021/12/27 20:35:24;;;;;;;53.80;49.40;;;;;;;11.62;100.00;98916.02;1888283;74;85644;-73
2021/12/27 20:41:09;;;;;;;52.70;48.20;;;;;;;11.66;100.00;98914.76;1917623;73;86266;-72
2021/12/27 20:46:53;;;;;;;46.83;42.53;;;;;;;11.67;100.00;98910.83;1986275;71;39403;-72
2021/12/27 20:52:37;;;;;;;52.77;48.70;;;;;;;11.71;100.00;98914.56;1843727;76;86347;-72
2021/12/27 20:58:25;;;;;;;47.93;43.60;;;;;;;11.65;100.00;98909.77;1909304;73;86469;-73
2021/12/27 21:04:10;;;;;;;55.17;50.23;;;;;;;11.65;100.00;98905.59;1914187;72;85612;-69
2021/12/27 21:09:55;;;;;;;57.20;52.50;;;;;;;11.65;100.00;98905.59;1979115;71;39580;-76
2021/12/27 21:15:39;;;;;;;55.90;51.40;;;;;;;11.64;100.00;98894.80;1829157;76;86438;-76
2021/12/27 21:21:23;;;;;;;56.77;52.13;;;;;;;11.58;100.00;98889.23;1872014;75;86467;-76
2021/12/27 21:27:08;;;;;;;55.40;51.23;;;;;;;11.57;100.00;98893.97;1886370;74;86560;-75
2021/12/27 21:32:52;;;;;;;56.90;52.20;;;;;;;11.52;100.00;98892.78;1986753;71;39472;-75
2021/12/27 21:38:37;;;;;;;57.00;52.13;;;;;;;11.43;100.00;98898.98;1943299;72;86560;-76
2021/12/27 21:44:23;;;;;;;56.73;52.27;;;;;;;11.25;100.00;98905.23;1877265;73;86349;-75
2021/12/27 21:50:12;;;;;;;59.33;54.50;;;;;;;11.24;100.00;98894.47;1919533;72;86249;-72
2021/12/27 21:55:57;;;;;;;56.57;51.93;;;;;;;11.29;100.00;98892.89;1940778;71;39658;-73
2021/12/27 22:01:41;;;;;;;51.70;46.70;;;;;;;11.23;100.00;98888.09;1828895;75;86203;-73
2021/12/27 22:07:25;;;;;;;49.57;45.20;;;;;;;11.16;100.00;98891.17;1879341;73;86086;-73
2021/12/27 22:13:09;;;;;;;53.47;48.53;;;;;;;11.27;100.00;98900.73;1901522;74;86131;-77
2021/12/27 22:18:53;;;;;;;49.23;44.77;;;;;;;11.22;100.00;98899.54;1941780;71;39731;-73
2021/12/27 22:24:37;;;;;;;53.57;48.70;;;;;;;11.24;100.00;98905.02;1968596;72;85500;-74
2021/12/27 22:30:27;;;;;;;60.80;55.93;;;;;;;11.31;100.00;98908.06;1883951;73;86652;-83
2021/12/27 22:36:14;;;;;;;54.13;49.63;;;;;;;11.27;100.00;98897.95;1906577;73;86713;-73
2021/12/27 22:41:57;;;;;;;49.93;45.33;;;;;;;11.32;100.00;98891.63;1977175;71;39757;-74
2021/12/27 22:47:45;;;;;;;50.00;45.33;;;;;;;11.29;100.00;98882.59;1844491;76;86536;-73
2021/12/27 22:56:44;;;;;;;49.93;45.23;;;;;;;11.05;100.00;98873.25;1974219;69;86981;-73
2021/12/27 23:02:29;;;;;;;52.90;48.17;;;;;;;10.84;100.00;98864.31;1808767;78;86901;-73
2021/12/27 23:08:17;;;;;;;50.90;46.47;;;;;;;10.69;100.00;98865.47;1919336;74;86447;-73
2021/12/27 23:14:02;;;;;;;52.23;47.40;;;;;;;10.58;100.00;98862.81;1918083;72;85822;-75
2021/12/27 23:19:46;;;;;;;54.70;50.17;;;;;;;10.59;100.00;98851.38;1802197;78;85598;-72
2021/12/27 23:25:30;;;;;;;54.77;50.30;;;;;;;10.59;100.00;98859.71;1798372;78;86823;-73
2021/12/27 23:31:14;;;;;;;52.00;47.17;;;;;;;10.68;100.00;98862.45;1905735;74;86116;-73
2021/12/27 23:36:58;;;;;;;48.93;44.80;;;;;;;10.84;100.00;98864.88;1984247;70;39544;-75
2021/12/27 23:42:46;;;;;;;52.80;48.07;;;;;;;10.71;100.00;98864.55;1826024;76;86234;-74
2021/12/27 23:48:30;;;;;;;52.80;47.93;;;;;;;10.56;100.00;98845.69;1800814;78;86541;-73
2021/12/27 23:54:15;;;;;;;50.70;46.90;;;;;;;10.55;100.00;98853.20;1933402;73;85010;-75
2021/12/27 23:59:59;;;;;;;53.30;48.60;;;;;;;10.57;100.00;98843.95;1985387;71;39715;-73
